Аэропорт: Сары-Арка. Караганда

ICAO: UAKK

METAR:
2018/07/22 20:00
UAKK 222000Z 03007MPS 9999 -SHRA FEW006 OVC015CB 11/10 Q1002 R05/1///65 NOSIG RMK QBB180 QFE705/0940
METAR:
2018/07/22 18:18
TAF UAKK 221700Z 2218/2318 03009MPS 5000 -SHRA SCT020CB BKN100 TX16/2310Z TN08/2223Z 
      TEMPO 2218/2302 03015MPS 1500 SHRA SCT005 BKN010CB 
      BECMG 2302/2304 34008MPS 9999 NSW 
      TEMPO 2302/2314 32015MPS 5000 -SHRA SCT007 BKN020CB